Abegall, Kentucky
Current Conditions -  °F | °C
As of 11:55 PM on Sunday 21 Dec 2014 (Local Time) from KFGX Reporting Station
Clear Clear  
Wind Chill: 20°   Ceiling: Unl
Heat Index: 27°   Visibility: 10mi
Dew Point: 25°   Wind: 7mph
Humidity: 90%   Direction: 80°E
Pressure: 30.12"   Gusts: NA
Location:  38.6546°N, 83.9578°W
Report Text: KFGX 220455Z AUTO 08006KT 10SM CLR M03/M04 A3012 RMK AO2 T10261041
Loading
Personal Weather Stations






























Interactive Weather Map New forecast layout! Learn more

10-Day Weather Forecast

Advertisements
Track Severe Weather on mobile